Date,TemperatureHighF,TemperatureAvgF,TemperatureLowF,DewpointHighF,DewpointAvgF,DewpointLowF,HumidityHigh,HumidityAvg,HumidityLow,PressureMaxIn,PressureMinIn,WindSpeedMaxMPH,WindSpeedAvgMPH,GustSpeedMaxMPH,PrecipitationSumIn
2013-1-1,77.8,65.5,52.7,67.6,60.9,49.0,93,85,69,30.04,29.84,27,6,27,0.24
2013-1-2,52.7,47.6,43.5,48.9,43.6,40.2,90,86,80,30.23,30.03,20,5,20,0.09
2013-1-3,49.4,44.3,39.8,40.4,35.5,32.4,91,72,56,30.35,30.18,19,5,19,0.22
2013-1-4,55.2,47.9,41.8,43.3,35.6,32.4,78,63,46,30.41,30.28,20,3,20,0.00
2013-1-5,51.7,49.9,47.4,44.6,41.3,38.3,78,72,64,30.32,30.17,14,3,14,0.00
2013-1-6,51.6,49.0,46.0,47.7,45.1,42.3,93,87,71,30.26,30.12,17,4,17,0.81
2013-1-7,54.7,49.8,45.0,47.7,43.7,40.3,89,80,65,30.27,30.13,20,4,20,0.01
2013-1-8,59.0,54.7,51.1,58.4,51.4,45.8,98,89,81,30.16,30.03,19,4,19,1.06
2013-1-9,69.0,64.1,59.0,68.1,62.8,57.9,97,96,93,30.13,30.01,15,3,15,0.88
2013-1-10,71.9,67.9,64.3,70.5,66.1,62.4,97,94,91,30.14,29.92,27,7,27,1.52
2013-1-11,74.2,70.5,66.9,71.7,68.4,65.2,95,93,88,30.05,29.95,20,4,20,0.06
2013-1-12,78.7,72.8,69.4,71.8,69.3,66.5,97,89,68,30.00,29.86,25,7,25,0.01
2013-1-13,77.4,68.3,52.0,72.2,65.6,49.8,95,91,81,30.03,29.82,28,7,28,0.59
2013-1-14,52.6,49.1,42.7,51.1,47.2,40.2,95,93,91,30.12,30.00,20,5,20,0.17
2013-1-15,51.8,48.9,46.4,50.4,47.4,44.5,95,94,93,30.05,29.90,15,2,15,0.02
2013-1-16,47.0,41.2,39.3,45.5,38.8,36.2,98,91,88,30.14,29.96,20,6,20,0.19
2013-1-17,53.5,45.8,38.4,39.3,37.0,34.8,90,73,53,30.39,30.14,21,6,21,0.00
2013-1-18,53.7,46.8,41.4,43.0,39.4,36.5,89,76,64,30.49,30.35,16,3,16,0.00
2013-1-19,61.7,53.2,42.9,50.0,46.1,39.0,90,77,60,30.35,30.18,11,1,11,0.00
2013-1-20,63.4,54.2,45.8,52.8,47.2,43.9,94,78,52,30.23,30.08,8,1,8,0.00
2013-1-21,65.0,55.8,46.7,49.4,46.5,43.4,92,73,51,30.18,30.09,11,1,11,0.00
2013-1-22,57.9,52.4,47.8,49.0,44.1,37.8,84,74,60,30.32,30.17,14,2,14,0.00
2013-1-23,70.8,58.4,47.4,55.6,49.6,44.6,93,75,46,30.35,30.23,12,2,12,0.00
2013-1-24,72.9,62.6,54.5,59.4,55.7,51.3,92,79,60,30.29,30.17,13,2,13,0.00
2013-1-25,74.5,64.9,57.7,61.7,58.0,54.0,92,79,63,30.21,30.09,19,2,19,0.00
2013-1-26,74.0,64.5,55.1,64.8,59.0,53.1,93,83,65,30.20,30.12,12,1,12,0.00
2013-1-27,73.6,66.4,60.5,62.3,60.2,57.3,91,81,64,30.22,30.13,19,5,19,0.00
2013-1-28,76.4,68.2,60.5,67.5,63.4,57.6,92,85,72,30.19,30.06,17,5,17,0.00
2013-1-29,79.1,73.2,68.3,71.1,68.5,65.6,92,85,73,30.06,29.73,28,7,28,0.00
2013-1-30,74.6,61.0,46.7,70.0,51.0,33.7,92,71,45,30.17,29.63,31,10,31,0.95
2013-1-31,60.4,50.0,40.3,40.0,35.3,27.9,83,59,32,30.32,30.16,12,2,12,0.00
2013-2-1,62.6,53.7,47.2,47.8,42.6,38.9,82,67,45,30.36,30.26,15,2,15,0.00
2013-2-2,68.8,57.8,46.5,54.9,49.7,42.0,92,75,57,30.29,30.13,12,2,12,0.00
2013-2-3,68.3,59.3,51.3,53.1,46.2,39.3,88,64,36,30.24,30.08,14,2,14,0.00
2013-2-4,63.5,56.6,50.2,56.6,50.8,45.5,93,81,64,30.08,29.90,16,2,16,0.74
2013-2-5,68.1,61.6,58.6,61.7,58.2,56.1,95,89,78,29.99,29.88,10,1,10,0.03
2013-2-6,64.8,60.5,54.7,60.5,57.5,52.4,95,90,84,30.08,29.88,18,3,18,0.31
2013-2-7,67.7,62.8,59.0,62.0,58.8,55.8,92,87,77,29.92,29.76,28,4,28,1.63
2013-2-8,69.8,61.4,56.3,61.0,56.9,51.8,92,86,69,30.12,29.92,15,3,15,0.01
2013-2-9,64.0,59.0,54.3,60.2,54.4,49.6,88,84,81,30.18,29.98,17,5,17,0.00
2013-2-10,75.9,70.6,63.9,70.4,66.5,60.3,90,87,82,30.00,29.86,29,7,29,0.02
2013-2-11,71.0,62.8,58.2,67.9,59.5,54.0,91,89,86,30.07,29.92,26,6,26,0.72
2013-2-12,73.5,64.6,59.0,70.4,61.3,55.8,91,89,85,29.99,29.69,18,4,18,0.03
2013-2-13,61.8,52.5,48.5,57.6,47.3,40.9,87,82,72,30.04,29.80,22,5,22,0.10
2013-2-14,57.4,50.8,47.0,45.5,42.4,40.0,87,73,59,30.13,30.01,15,2,15,0.00
2013-2-15,65.2,54.9,44.2,50.4,43.4,40.5,92,68,42,30.14,30.01,19,2,19,0.00
2013-2-16,53.5,48.5,41.8,42.3,32.7,23.6,78,56,32,30.27,30.13,27,6,27,0.00
2013-2-17,60.2,49.9,38.8,43.3,36.6,28.0,82,61,42,30.32,30.18,20,4,20,0.00
2013-2-18,65.6,58.7,47.8,60.5,52.1,41.6,84,79,67,30.20,29.93,25,8,25,0.00
2013-2-19,65.7,60.5,52.8,61.4,47.6,35.3,88,65,34,30.20,29.92,20,6,20,0.24
2013-2-20,55.9,51.8,47.0,41.4,36.2,29.7,64,55,45,30.22,29.98,27,6,27,0.00
2013-2-21,74.0,65.6,55.2,67.9,58.5,38.0,87,78,53,29.98,29.72,29,7,29,0.12
2013-2-22,71.5,64.1,56.8,67.4,57.8,51.1,89,80,60,29.94,29.81,29,3,29,0.29
2013-2-23,60.4,58.1,55.9,55.2,53.7,52.4,88,85,82,29.91,29.80,14,2,14,0.79
2013-2-24,62.1,58.2,52.7,58.4,53.7,48.1,88,85,82,29.92,29.68,25,5,25,0.41
2013-2-25,68.0,63.4,59.8,64.0,58.9,45.9,88,85,62,29.72,29.40,29,6,29,1.24
2013-2-26,59.9,53.0,46.0,46.7,41.8,36.9,81,66,57,29.90,29.55,28,8,28,0.00
2013-2-27,69.5,58.1,49.0,52.0,46.5,41.2,87,68,38,30.00,29.88,15,2,15,0.00
2013-2-28,57.8,50.6,45.0,44.4,37.0,32.0,78,60,46,30.11,30.00,19,4,19,0.00
2013-3-1,59.1,50.7,43.6,39.0,36.5,32.7,81,60,40,30.15,30.00,26,5,26,0.00
2013-3-2,49.9,43.8,39.0,36.0,30.7,26.6,75,60,49,30.25,30.10,24,5,24,0.00
2013-3-3,55.3,44.1,33.2,37.5,30.9,26.0,78,61,42,30.28,30.11,16,2,16,0.00
2013-3-4,69.0,59.1,44.2,57.7,50.5,36.5,85,74,61,30.12,29.90,25,6,25,0.00
2013-3-5,75.1,66.3,56.5,63.8,54.5,38.9,85,68,39,30.16,29.89,23,6,23,0.00
2013-3-6,63.6,54.1,45.1,39.7,33.2,28.8,61,46,31,30.30,30.14,18,4,18,0.00
2013-3-7,60.5,51.8,44.6,44.9,40.0,34.7,80,65,41,30.31,30.18,14,2,14,0.00
2013-3-8,67.5,56.3,43.8,51.2,46.3,40.5,89,71,43,30.26,30.13,11,2,11,0.00
2013-3-9,69.7,62.9,54.4,60.9,56.3,50.2,86,79,69,30.14,29.90,20,6,20,0.00
2013-3-10,76.8,69.9,64.1,68.3,64.0,59.6,86,82,71,29.93,29.81,25,8,25,0.04
2013-3-11,69.7,54.4,45.5,65.3,47.0,40.7,89,77,50,30.00,29.82,27,6,27,0.72
2013-3-12,66.8,54.8,44.5,47.8,42.6,40.4,86,65,42,30.18,30.00,14,2,14,0.00
2013-3-13,67.2,57.2,46.7,45.1,38.4,31.3,86,53,27,30.35,30.18,18,4,18,0.00
2013-3-14,65.6,55.8,49.1,45.1,36.4,29.8,69,49,34,30.41,30.25,18,3,18,0.00
2013-3-15,74.8,61.2,49.4,52.8,47.6,44.0,87,64,37,30.29,30.08,21,2,21,0.00
2013-3-16,76.0,65.4,56.6,59.7,55.9,50.5,88,73,51,30.12,29.90,17,3,17,0.00
2013-3-17,78.0,69.2,63.2,65.7,62.2,58.2,87,79,56,29.93,29.78,22,5,22,0.00
2013-3-18,82.5,73.3,67.6,69.7,66.5,62.9,86,80,64,29.85,29.70,22,3,22,0.02
2013-3-19,71.6,65.4,59.2,64.8,57.8,50.5,85,76,68,29.98,29.83,19,4,19,0.00
2013-3-20,69.5,62.4,55.1,59.9,46.0,37.1,85,56,35,30.13,29.92,18,4,18,0.00
2013-3-21,64.8,58.3,53.3,48.9,43.7,37.7,74,59,43,30.02,29.82,17,5,17,0.00
2013-3-22,78.2,67.8,57.3,69.2,61.9,49.0,85,81,73,29.85,29.70,18,5,18,0.00
2013-3-23,75.5,70.1,65.3,70.0,65.1,60.6,86,84,82,29.77,29.52,15,2,15,0.00
2013-3-24,72.4,65.4,51.1,66.6,53.4,35.3,82,67,36,29.97,29.55,27,9,27,0.00
2013-3-25,60.0,49.0,40.5,36.7,31.1,26.0,70,52,28,30.23,29.97,25,7,25,0.00
2013-3-26,56.4,50.3,40.2,34.6,30.4,24.2,68,47,37,30.37,30.23,20,5,20,0.00
2013-3-27,58.7,50.7,43.3,44.1,37.1,29.5,79,60,35,30.40,30.24,13,2,13,0.00
2013-3-28,67.0,55.3,42.5,50.9,46.0,38.3,85,72,49,30.32,30.19,13,2,13,0.00
2013-3-29,73.3,62.2,49.0,58.0,52.2,44.4,84,71,53,30.28,30.13,17,2,17,0.00
2013-3-30,75.7,66.9,59.6,61.1,57.9,54.0,82,74,52,30.16,29.98,18,3,18,0.00
2013-3-31,79.1,66.2,60.2,67.5,59.4,54.5,82,79,64,30.01,29.83,33,3,33,0.37
2013-4-1,74.5,64.3,58.6,62.3,57.1,53.1,82,78,59,30.03,29.89,14,1,14,0.01
2013-4-2,75.6,67.2,59.0,63.9,58.7,52.8,82,75,52,30.05,29.89,16,3,16,0.07
2013-4-3,68.1,63.2,56.2,61.2,56.4,49.8,80,78,77,29.96,29.69,31,4,31,1.54
2013-4-4,60.3,55.7,50.7,54.0,49.4,45.1,81,79,77,30.01,29.85,19,6,19,0.00
2013-4-5,67.2,55.5,48.8,53.4,47.9,43.1,81,76,60,30.12,30.00,19,5,19,0.00
2013-4-6,72.2,63.0,51.9,57.7,53.5,45.6,81,72,57,30.10,30.00,17,4,17,0.00
2013-4-7,76.5,67.6,59.9,62.6,58.8,53.7,80,74,60,30.04,29.93,18,6,18,0.00
2013-4-8,78.7,71.5,63.7,68.8,63.4,56.4,79,76,67,29.96,29.88,21,7,21,0.00
2013-4-9,81.0,76.6,72.7,73.9,69.2,65.1,80,78,76,29.96,29.85,23,9,23,0.00
2013-4-10,81.3,76.5,73.9,73.1,69.5,66.4,81,79,76,29.92,29.77,29,10,29,0.00
2013-4-11,77.6,68.9,54.8,70.9,62.3,49.0,82,80,76,29.83,29.61,29,7,29,0.87
2013-4-12,74.2,61.5,51.7,56.6,50.5,46.1,82,69,43,29.95,29.83,16,3,16,0.01
2013-4-13,74.9,67.7,57.7,60.1,55.3,50.2,81,65,49,29.98,29.78,21,5,21,0.01
2013-4-14,74.9,66.9,60.1,65.2,59.6,53.6,81,78,67,29.85,29.68,33,6,33,2.14
2013-4-15,79.3,60.3,63.2,99.9,70.4,56.2,79,64,73,29.93,29.76,18,3,18,0.00
2013-4-16,82.5,77.2,74.3,74.7,68.8,64.7,79,75,72,30.04,29.91,21,7,21,0.00
2013-4-17,82.3,77.5,73.2,73.9,68.8,63.6,79,75,72,30.02,29.89,20,7,20,0.00
2013-4-18,82.0,77.8,75.1,74.7,70.5,67.5,80,78,75,29.90,29.74,27,9,27,0.00
2013-4-19,77.1,55.1,49.8,69.3,47.2,41.7,81,75,59,30.15,29.76,28,5,28,0.92
2013-4-20,67.0,58.6,54.0,50.8,43.8,39.7,76,58,43,30.22,30.06,20,4,20,0.00
2013-4-21,72.2,64.1,53.5,56.4,52.3,47.7,81,66,48,30.15,30.05,20,3,20,0.00
2013-4-22,75.0,67.4,58.0,66.9,59.8,51.6,83,77,69,30.08,29.96,15,4,15,0.00
2013-4-23,81.2,73.0,67.1,70.9,64.9,58.9,79,76,68,30.02,29.92,19,7,19,0.00
2013-4-24,74.0,68.7,60.2,65.2,60.5,52.9,79,75,72,30.14,29.93,30,5,30,1.22
2013-4-25,72.7,63.7,57.8,61.8,54.8,50.3,79,73,63,30.28,30.13,16,4,16,0.00
2013-4-26,76.3,70.6,64.3,67.4,61.2,54.6,78,72,62,30.21,30.14,14,4,14,0.00
2013-4-27,81.3,74.3,69.1,70.6,65.2,59.8,78,73,63,30.15,29.98,17,3,17,0.00
2013-4-28,75.1,70.2,64.3,66.4,61.2,55.4,78,73,70,30.01,29.88,25,2,25,2.29
2013-4-29,80.2,71.4,63.9,68.8,62.3,55.0,78,73,57,29.93,29.81,18,2,18,0.12
2013-4-30,75.8,71.3,67.5,67.7,61.7,57.7,77,72,69,29.86,29.77,28,2,28,0.58
2013-5-1,77.0,71.4,68.6,68.9,62.0,59.3,77,72,69,29.85,29.76,17,2,17,0.08
2013-5-2,74.9,71.3,67.8,66.8,62.6,57.8,77,74,70,29.89,29.80,22,4,22,0.00
2013-5-3,71.9,61.0,51.2,63.2,53.0,43.7,79,75,70,30.01,29.83,26,8,26,1.18
2013-5-4,71.3,58.4,45.9,50.2,45.2,39.1,80,63,40,30.00,29.83,16,3,16,0.00
2013-5-5,65.2,59.6,52.7,54.7,47.9,43.5,79,66,49,30.01,29.83,23,5,23,0.00
2013-5-6,74.2,62.8,50.5,57.3,50.8,43.6,79,66,49,30.02,29.88,20,4,20,0.00
2013-5-7,80.2,69.3,59.4,64.6,58.6,50.8,78,69,52,30.01,29.92,10,1,10,0.00
2013-5-8,82.3,71.7,63.4,65.6,60.1,54.1,77,68,50,30.06,29.98,17,2,17,0.00
2013-5-9,80.8,74.4,68.1,70.5,65.6,59.9,77,74,64,30.06,29.97,17,5,17,0.00
2013-5-10,75.7,69.3,65.3,66.2,59.8,55.7,76,72,70,30.03,29.81,34,5,34,2.12
2013-5-11,74.8,69.9,64.7,66.7,60.5,55.4,76,72,69,30.01,29.89,18,2,18,0.64
2013-5-12,78.7,71.2,66.4,63.8,60.6,57.0,77,69,56,30.10,29.99,14,4,14,0.00
2013-5-13,77.3,68.7,62.7,57.0,52.0,47.2,73,57,37,30.25,30.10,16,3,16,0.00
2013-5-14,83.0,70.8,59.2,62.5,57.4,50.6,78,64,44,30.23,30.10,16,1,16,0.00
2013-5-15,81.3,72.1,62.9,65.8,60.4,53.7,77,67,48,30.15,29.97,15,3,15,0.00
2013-5-16,82.8,75.9,68.8,70.5,65.6,60.3,77,71,59,29.99,29.85,20,4,20,0.00
2013-5-17,85.3,78.7,73.8,73.4,68.1,62.3,76,70,65,29.98,29.89,16,3,16,0.00
2013-5-18,86.7,79.6,74.6,74.4,68.5,62.5,76,69,62,30.01,29.93,15,2,15,0.00
2013-5-19,85.2,79.6,75.5,74.8,69.7,64.0,76,72,67,29.96,29.89,17,4,17,0.00
2013-5-20,88.0,81.1,76.3,77.0,70.7,63.8,76,71,65,29.95,29.86,19,6,19,0.00
2013-5-21,87.0,80.2,76.4,76.3,70.7,65.5,77,73,67,29.92,29.78,21,5,21,0.00
2013-5-22,78.0,74.9,69.2,69.7,65.3,59.2,77,72,68,29.95,29.77,29,2,29,0.29
2013-5-23,87.4,77.2,70.7,77.1,66.9,59.6,76,71,66,30.01,29.90,15,1,15,0.03
2013-5-24,88.7,79.7,69.2,75.6,68.9,58.2,76,70,62,30.09,29.95,12,2,15,0.00
2013-5-25,84.2,78.7,74.2,72.6,68.0,64.6,77,70,61,30.16,30.07,17,4,17,0.00
2013-5-26,83.9,77.7,71.2,71.7,66.7,62.6,77,70,54,30.12,30.04,13,4,13,0.00
2013-5-27,85.4,78.3,70.1,74.0,68.4,60.3,78,72,61,30.07,29.96,19,4,19,0.00
2013-5-28,84.8,78.3,72.6,71.8,68.1,64.9,78,71,53,30.02,29.93,20,7,20,0.00
2013-5-29,85.8,78.3,73.3,76.5,68.7,62.7,77,72,67,29.96,29.88,25,7,25,0.53
2013-5-30,85.7,79.9,76.2,77.2,69.7,64.0,76,71,66,29.95,29.87,21,8,21,0.21
2013-5-31,87.7,82.0,77.7,77.2,71.7,65.6,77,71,66,29.95,29.88,17,6,17,0.00
2013-6-1,88.8,82.2,77.0,77.4,71.8,64.7,76,71,63,29.91,29.85,19,4,19,0.00
2013-6-2,83.2,78.2,70.4,74.1,68.2,59.2,76,71,66,29.97,29.80,25,2,25,2.27
2013-6-3,89.4,81.5,74.2,76.6,70.2,62.3,76,69,57,29.87,29.77,13,1,13,0.00
2013-6-4,89.1,82.5,76.1,79.3,72.2,64.0,76,71,65,29.88,29.80,18,3,18,0.21
2013-6-5,87.9,81.9,78.8,77.3,72.5,68.2,77,73,69,29.86,29.74,14,4,14,0.35
2013-6-6,91.2,80.3,73.9,76.9,70.0,63.2,77,71,61,29.81,29.68,24,2,24,0.08
2013-6-7,86.8,78.6,72.8,74.1,67.9,61.6,77,70,61,29.84,29.73,12,2,12,0.00
2013-6-8,87.3,80.1,75.2,75.8,70.3,64.0,77,72,67,29.92,29.81,22,1,22,0.16
2013-6-9,87.3,79.6,75.7,76.6,69.5,64.0,76,71,64,29.93,29.84,25,3,25,0.06
2013-6-10,89.7,81.8,76.9,77.6,71.4,64.7,76,71,66,29.97,29.90,15,1,15,0.00
2013-6-11,91.3,83.7,79.0,79.3,72.4,65.8,76,69,62,30.03,29.95,12,1,12,0.00
2013-6-12,92.6,83.4,76.8,77.7,71.6,64.2,76,68,58,30.05,29.95,11,1,11,0.00
2013-6-13,93.4,84.6,76.6,77.3,71.8,64.0,75,66,55,30.01,29.84,14,2,14,0.00
2013-6-14,94.8,86.3,79.1,81.3,74.1,65.9,75,67,64,29.89,29.78,17,3,17,0.00
2013-6-15,91.0,84.9,80.6,79.8,75.4,72.2,77,73,64,29.95,29.86,16,4,16,0.00
2013-6-16,91.3,83.2,78.0,79.6,73.1,67.2,77,72,65,29.99,29.90,18,2,18,0.62
2013-6-17,90.0,82.5,77.5,77.9,72.3,66.1,77,72,61,29.97,29.87,17,1,17,0.00
2013-6-18,91.7,83.6,76.9,75.7,71.8,66.9,77,68,50,29.96,29.83,14,2,14,0.00
2013-6-19,85.8,80.5,76.3,76.4,71.1,65.9,77,73,66,29.98,29.88,14,1,14,0.00
2013-6-20,91.0,79.6,73.7,78.8,69.4,64.3,77,71,60,30.07,29.96,21,1,21,0.03
2013-6-21,91.8,82.3,74.2,77.3,70.8,62.8,77,68,56,30.06,29.99,16,2,16,0.00
2013-6-22,87.6,81.7,76.0,77.4,71.9,64.7,76,72,62,30.05,29.94,11,2,14,0.30
2013-6-23,87.7,82.2,76.3,77.2,72.7,65.0,77,73,62,30.01,29.95,10,1,10,0.00
2013-6-24,91.0,84.2,77.8,77.3,73.2,68.1,76,70,53,30.07,29.98,13,2,13,0.00
2013-6-25,89.3,83.5,77.8,79.2,74.1,68.1,77,73,63,30.04,29.94,17,2,17,0.00
2013-6-26,93.0,83.3,77.3,79.6,73.7,66.3,77,73,61,30.01,29.90,21,1,21,0.03
2013-6-27,95.7,86.3,79.2,80.0,74.9,67.3,76,69,54,29.97,29.86,14,1,14,0.00
2013-6-28,94.5,86.4,80.0,79.6,74.8,68.1,76,69,59,29.90,29.72,16,4,16,0.00
2013-6-29,87.2,81.1,72.0,78.6,71.2,61.0,76,72,67,29.83,29.64,24,3,24,1.65
2013-6-30,92.8,81.9,73.0,74.9,66.9,62.2,76,62,39,29.75,29.67,18,3,18,0.09
2013-7-1,87.9,80.6,71.8,72.7,68.8,63.0,77,68,52,29.86,29.75,13,1,13,0.00
2013-7-2,88.0,81.6,76.3,72.4,70.5,68.5,78,69,55,29.93,29.84,10,2,10,0.00
2013-7-3,85.6,80.5,76.0,74.5,71.2,66.8,78,73,63,29.96,29.86,14,2,14,0.03
2013-7-4,87.5,81.3,76.2,76.7,71.7,67.2,77,73,63,29.93,29.86,17,2,17,0.00
2013-7-5,81.5,77.8,75.0,72.2,68.4,65.3,77,73,68,30.00,29.89,22,3,22,0.12
2013-7-6,84.0,78.7,76.2,75.5,68.8,65.0,76,72,67,29.95,29.88,14,3,14,0.11
2013-7-7,87.0,78.2,74.4,77.8,67.5,62.1,77,70,65,30.06,29.91,24,2,24,2.01
2013-7-8,84.7,79.0,74.9,75.9,67.9,62.3,75,69,63,30.11,30.00,14,1,14,0.01
2013-7-9,91.0,82.2,75.3,77.3,70.2,61.8,75,67,60,30.13,30.01,12,1,12,0.00
2013-7-10,92.5,82.9,77.2,79.2,71.0,63.2,75,68,59,30.06,29.92,19,1,19,0.00
2013-7-11,89.0,79.4,74.6,78.8,66.9,60.7,75,66,62,29.95,29.84,23,2,23,1.01
2013-7-12,92.7,80.1,72.8,79.6,67.7,59.0,74,66,59,29.90,29.78,10,0,10,0.01
2013-7-13,91.5,82.7,75.2,77.3,69.8,60.4,74,65,51,29.88,29.80,16,1,16,0.00
2013-7-14,87.5,81.1,77.2,77.0,71.1,65.5,76,72,67,29.95,29.84,18,3,18,0.00
2013-7-15,89.0,80.1,73.7,77.1,69.0,61.9,75,69,62,30.04,29.93,17,3,17,1.08
2013-7-16,85.1,81.3,78.4,75.9,70.6,66.5,75,70,64,30.10,29.99,19,3,19,0.00
2013-7-17,89.5,83.4,79.3,78.8,71.9,67.1,75,69,52,30.15,30.05,19,3,19,0.00
2013-7-18,89.3,82.0,77.8,77.0,71.4,64.7,75,70,61,30.10,29.95,18,1,18,0.01
2013-7-19,90.0,83.0,77.4,77.0,71.4,63.4,75,68,53,30.00,29.88,17,2,17,0.00
2013-7-20,87.0,80.8,75.8,77.4,70.1,62.5,75,70,61,29.96,29.87,14,1,14,0.08
2013-7-21,82.1,78.4,72.9,71.8,66.6,59.8,73,67,61,30.05,29.93,21,2,21,0.47
2013-7-22,91.0,82.7,76.9,80.3,71.0,63.5,74,68,60,30.02,29.94,17,2,17,0.35
2013-7-23,91.7,84.0,79.0,79.1,71.0,62.3,75,65,56,30.01,29.88,17,2,17,0.00
2013-7-24,91.3,83.9,78.7,78.9,71.3,62.7,75,66,58,29.94,29.83,18,3,18,0.00
2013-7-25,92.3,84.0,78.2,78.8,71.3,63.0,75,66,57,29.99,29.86,11,2,11,0.00
2013-7-26,92.2,84.0,75.1,77.9,71.8,60.8,75,67,58,30.01,29.90,10,1,10,0.00
2013-7-27,82.7,80.2,77.4,72.2,67.2,62.0,73,65,57,29.93,29.80,16,1,16,0.08
2013-7-28,89.8,82.2,75.8,77.4,68.5,58.9,74,63,55,29.96,29.83,12,1,12,0.00
2013-7-29,93.5,84.4,76.9,78.4,69.6,59.0,74,62,52,30.04,29.94,10,1,10,0.00
2013-7-30,93.2,83.4,78.8,79.7,68.8,61.2,74,62,55,30.09,30.01,16,1,16,0.15
2013-7-31,92.7,83.6,78.9,80.8,70.1,60.9,74,64,53,30.06,29.92,16,1,16,0.00
2013-8-1,93.9,85.6,79.3,81.0,72.2,61.8,74,65,55,29.98,29.86,13,2,13,0.00
2013-8-2,94.7,85.4,78.7,79.8,71.4,60.2,74,63,50,29.97,29.86,10,1,13,0.00
2013-8-3,93.5,83.8,77.8,81.5,71.1,59.3,74,66,52,30.01,29.93,13,1,13,0.00
2013-8-4,95.4,85.4,79.3,79.9,71.5,60.8,74,64,53,30.05,29.92,12,1,12,0.00
2013-8-5,94.8,85.4,78.4,80.9,71.4,60.3,74,63,53,30.01,29.90,13,2,13,0.00
2013-8-6,95.7,86.5,79.2,79.1,71.8,60.4,73,62,52,29.96,29.85,15,2,15,0.00
2013-8-7,95.5,86.4,79.4,80.2,72.1,60.8,73,63,53,29.94,29.82,9,1,9,0.00
2013-8-8,93.8,85.4,79.7,80.7,72.0,60.7,74,64,52,29.92,29.83,14,2,14,0.16
2013-8-9,88.1,82.4,79.6,77.9,69.7,63.8,73,66,55,29.96,29.86,14,2,14,0.03
2013-8-10,92.6,82.5,75.6,78.5,69.2,59.6,73,64,54,30.01,29.94,24,3,24,1.82
2013-8-11,86.0,81.0,76.2,75.8,67.6,61.0,73,64,54,30.08,29.99,19,1,19,0.50
2013-8-12,89.5,81.7,76.5,79.3,65.3,58.6,73,58,51,30.05,29.97,25,1,25,0.10
2013-8-13,89.3,80.0,73.4,79.0,61.7,54.2,72,54,48,30.01,29.90,33,1,33,2.08
2013-8-14,81.3,76.2,73.9,64.8,56.3,54.1,58,50,48,29.96,29.86,16,1,16,0.94
2013-8-15,86.8,80.2,74.8,76.5,64.8,53.7,73,60,46,29.93,29.85,11,1,11,0.01
2013-8-16,89.3,82.3,77.1,77.4,68.3,55.5,74,63,47,29.92,29.85,15,2,15,0.00
2013-8-17,84.2,79.8,77.6,74.1,66.0,58.0,73,63,49,29.92,29.86,22,4,22,0.00
2013-8-18,82.7,78.6,75.4,72.8,64.4,56.6,72,62,52,29.95,29.85,18,3,18,0.00
2013-8-19,84.3,77.8,73.6,74.3,60.4,53.4,72,56,48,29.99,29.92,12,1,12,0.10
2013-8-20,88.5,79.9,75.2,78.4,62.3,53.8,73,56,45,30.00,29.93,20,1,20,0.19
2013-8-21,86.5,79.8,75.4,75.9,60.9,54.9,71,53,45,30.05,29.97,22,1,22,0.56
2013-8-22,89.5,83.1,78.0,77.9,68.4,56.6,73,62,46,30.03,29.90,15,2,15,0.00
2013-8-23,86.3,81.6,77.5,76.2,68.0,56.2,73,64,46,29.95,29.86,21,3,21,0.02
2013-8-24,82.2,78.8,75.6,72.2,65.5,55.7,72,64,48,30.04,29.90,18,4,18,0.07
2013-8-25,83.3,78.6,75.1,73.2,61.7,55.5,72,57,49,30.11,30.01,18,3,18,1.05
2013-8-26,83.8,79.2,75.7,73.1,62.7,54.7,72,58,47,30.13,30.03,19,2,19,0.90
2013-8-27,86.1,80.2,74.9,74.2,65.9,55.2,72,62,48,30.07,29.99,10,1,10,0.00